Gibsonia, PA (15044)

5:23 PM EDT on September 04, 2015 (GMT -0400)
Bakerstown | | Change Station
CLOSE
Current Station
Personal Weather Station
Location: Bakerstown, PA
Elevation: 1090 ft
Nearby Weather Stations

Elev 1090 ft 40.65 °N, 79.93 °W | Updated 13 minutes ago

Partly Cloudy
Partly Cloudy
89.0 °F
Feels Like 91 °F
N
2.0
Wind Variable Wind from West
Gusts 7.0 mph

Today
High -- | Low -- °F
--% Chance of Precip.
Yesterday
High -- | Low -- °F
Precip. -- in
6:49 AM 7:47 PM
Waning Gibbous, 56% visible
Pressure 30.08 in
Visibility 10.0 miles
Clouds Scattered Clouds 6000 ft
Heat Index 91 °F
Dew Point 65 °F
Humidity 45%
Rainfall 0.00 in
Snow Depth Not available.
UV 2 out of 12
Pollen 9.00 out of 12
Air Quality Not available.
Flu Activity Not available.
METAR KBTP 042115Z AUTO 09007KT 10SM TS SCT060 30/17 A3008 RMK AO1 LTG DSNT E TSB01
Pressure 30.08 in
Visibility 10.0 miles
Clouds Scattered Clouds 6000 ft
Heat Index 91 °F
Dew Point 65 °F
Humidity 45%
Rainfall 0.00 in
Snow Depth Not available.
UV 2 out of 12
Pollen 9.00 out of 12
Air Quality Not available.
Flu Activity Not available.
METAR KBTP 042115Z AUTO 09007KT 10SM TS SCT060 30/17 A3008 RMK AO1 LTG DSNT E TSB01

10-Day Weather Forecast

×

Almanac

Astronomy

Sep. 04, 2015 Rise Set
Actual Time
Civil Twilight
Nautical Twilight
Astronomical Twilight
Moon
Length of Visible Light
Length of Day
Tomorrow will be .
, % of the Moon is Illuminated

Today's Extremes

State Highs State Lows

Community

WunderPhotos

Upload Photos

1,852,297 photos uploaded!

WunderBlogs® & News

Nearby

Air Quality

  Air Quality AQ Index Pollutant
Not available.

Snow Depth

Station Depth Elevation

Earthquake Activity

City Distance Mag. Time & Date
Minimum magnitude displayed is 2.5.

Coastal Water Temperatures

Place Temperature

Stations

Nearby Weather Stations

Station Location Temp. Windchill Dew Point Humidity Wind Precip. Elev Updated Type